sensor_id;sensor_type;location;lat;lon;timestamp;pressure;altitude;pressure_sealevel;temperature;humidity
13695;BME280;6919;52.344;14.518;2022-12-11T00:01:13;100148.78;;;-0.45;100.00
13695;BME280;6919;52.344;14.518;2022-12-11T00:03:44;100139.91;;;-0.44;100.00
13695;BME280;6919;52.344;14.518;2022-12-11T00:06:16;100143.69;;;-0.48;100.00
13695;BME280;6919;52.344;14.518;2022-12-11T00:08:45;100140.47;;;-0.53;100.00
13695;BME280;6919;52.344;14.518;2022-12-11T00:11:15;100133.81;;;-0.59;100.00
13695;BME280;6919;52.344;14.518;2022-12-11T00:13:43;100126.13;;;-0.48;100.00
13695;BME280;6919;52.344;14.518;2022-12-11T00:16:12;100132.72;;;-0.55;100.00
13695;BME280;6919;52.344;14.518;2022-12-11T00:18:40;100131.41;;;-0.62;100.00
13695;BME280;6919;52.344;14.518;2022-12-11T00:21:13;100134.94;;;-0.49;100.00
13695;BME280;6919;52.344;14.518;2022-12-11T00:23:42;100132.97;;;-0.45;100.00
13695;BME280;6919;52.344;14.518;2022-12-11T00:26:13;100130.53;;;-0.48;100.00
13695;BME280;6919;52.344;14.518;2022-12-11T00:28:43;100129.84;;;-0.52;100.00
13695;BME280;6919;52.344;14.518;2022-12-11T00:31:15;100131.91;;;-0.43;100.00
13695;BME280;6919;52.344;14.518;2022-12-11T00:33:44;100143.66;;;-0.34;100.00
13695;BME280;6919;52.344;14.518;2022-12-11T00:36:19;100132.44;;;-0.24;100.00
13695;BME280;6919;52.344;14.518;2022-12-11T00:38:49;100145.53;;;-0.36;100.00
13695;BME280;6919;52.344;14.518;2022-12-11T00:41:18;100141.72;;;-0.18;100.00
13695;BME280;6919;52.344;14.518;2022-12-11T00:43:47;100147.94;;;-0.19;100.00
13695;BME280;6919;52.344;14.518;2022-12-11T00:46:15;100139.28;;;-0.07;100.00
13695;BME280;6919;52.344;14.518;2022-12-11T00:48:43;100149.34;;;-0.14;100.00
13695;BME280;6919;52.344;14.518;2022-12-11T00:51:16;100156.00;;;-0.08;100.00
13695;BME280;6919;52.344;14.518;2022-12-11T00:53:44;100151.97;;;-0.14;100.00
13695;BME280;6919;52.344;14.518;2022-12-11T00:56:15;100151.53;;;-0.20;100.00
13695;BME280;6919;52.344;14.518;2022-12-11T00:58:45;100144.66;;;-0.09;100.00
13695;BME280;6919;52.344;14.518;2022-12-11T01:01:17;100135.78;;;-0.08;100.00
13695;BME280;6919;52.344;14.518;2022-12-11T01:03:47;100132.00;;;-0.04;100.00
13695;BME280;6919;52.344;14.518;2022-12-11T01:06:20;100133.88;;;-0.06;100.00
13695;BME280;6919;52.344;14.518;2022-12-11T01:08:49;100131.47;;;-0.09;100.00
13695;BME280;6919;52.344;14.518;2022-12-11T01:11:40;100139.72;;;-0.01;100.00
13695;BME280;6919;52.344;14.518;2022-12-11T01:14:09;100140.25;;;0.04;100.00
13695;BME280;6919;52.344;14.518;2022-12-11T01:16:37;100134.69;;;0.09;100.00
13695;BME280;6919;52.344;14.518;2022-12-11T01:19:06;100144.19;;;0.12;100.00
13695;BME280;6919;52.344;14.518;2022-12-11T01:21:35;100148.22;;;0.17;100.00
13695;BME280;6919;52.344;14.518;2022-12-11T01:24:04;100140.63;;;0.13;100.00
13695;BME280;6919;52.344;14.518;2022-12-11T01:26:33;100146.34;;;0.19;100.00
13695;BME280;6919;52.344;14.518;2022-12-11T01:29:02;100135.16;;;0.28;100.00
13695;BME280;6919;52.344;14.518;2022-12-11T01:31:30;100134.78;;;0.47;100.00
13695;BME280;6919;52.344;14.518;2022-12-11T01:33:58;100128.91;;;0.56;100.00
13695;BME280;6919;52.344;14.518;2022-12-11T01:36:26;100137.34;;;0.61;100.00
13695;BME280;6919;52.344;14.518;2022-12-11T01:38:56;100125.31;;;0.57;100.00
13695;BME280;6919;52.344;14.518;2022-12-11T01:41:24;100136.50;;;0.60;100.00
13695;BME280;6919;52.344;14.518;2022-12-11T01:44:02;100131.66;;;0.54;100.00
13695;BME280;6919;52.344;14.518;2022-12-11T01:46:32;100126.50;;;0.65;100.00
13695;BME280;6919;52.344;14.518;2022-12-11T01:49:05;100137.06;;;0.65;100.00
13695;BME280;6919;52.344;14.518;2022-12-11T01:51:39;100130.00;;;0.66;100.00
13695;BME280;6919;52.344;14.518;2022-12-11T01:54:13;100130.13;;;0.77;100.00
13695;BME280;6919;52.344;14.518;2022-12-11T01:56:47;100130.00;;;0.66;100.00
13695;BME280;6919;52.344;14.518;2022-12-11T01:59:21;100129.25;;;0.76;100.00
13695;BME280;6919;52.344;14.518;2022-12-11T02:01:58;100127.28;;;0.80;100.00
13695;BME280;6919;52.344;14.518;2022-12-11T02:04:28;100129.56;;;0.72;100.00
13695;BME280;6919;52.344;14.518;2022-12-11T02:06:58;100132.00;;;0.75;100.00
13695;BME280;6919;52.344;14.518;2022-12-11T02:09:30;100127.38;;;0.78;100.00
13695;BME280;6919;52.344;14.518;2022-12-11T02:12:05;100123.47;;;0.84;100.00
13695;BME280;6919;52.344;14.518;2022-12-11T02:14:42;100125.16;;;0.85;100.00
13695;BME280;6919;52.344;14.518;2022-12-11T02:17:16;100131.03;;;1.01;100.00
13695;BME280;6919;52.344;14.518;2022-12-11T02:20:02;100142.47;;;0.89;100.00
13695;BME280;6919;52.344;14.518;2022-12-11T02:22:57;100140.34;;;0.94;100.00
13695;BME280;6919;52.344;14.518;2022-12-11T02:25:36;100140.56;;;1.03;100.00
13695;BME280;6919;52.344;14.518;2022-12-11T02:28:18;100134.03;;;0.96;100.00
13695;BME280;6919;52.344;14.518;2022-12-11T02:30:56;100131.03;;;1.01;100.00
13695;BME280;6919;52.344;14.518;2022-12-11T02:33:34;100131.38;;;1.09;100.00
13695;BME280;6919;52.344;14.518;2022-12-11T02:36:06;100127.78;;;0.97;100.00
13695;BME280;6919;52.344;14.518;2022-12-11T02:38:40;100130.94;;;1.02;100.00
13695;BME280;6919;52.344;14.518;2022-12-11T02:41:12;100135.28;;;1.03;100.00
13695;BME280;6919;52.344;14.518;2022-12-11T02:43:43;100125.91;;;0.99;100.00
13695;BME280;6919;52.344;14.518;2022-12-11T02:46:14;100127.88;;;1.08;100.00
13695;BME280;6919;52.344;14.518;2022-12-11T02:48:46;100124.28;;;1.09;100.00
13695;BME280;6919;52.344;14.518;2022-12-11T02:51:22;100130.94;;;1.15;100.00
13695;BME280;6919;52.344;14.518;2022-12-11T02:53:55;100126.59;;;1.26;100.00
13695;BME280;6919;52.344;14.518;2022-12-11T02:56:32;100129.13;;;1.28;100.00
13695;BME280;6919;52.344;14.518;2022-12-11T02:59:07;100120.28;;;1.16;100.00
13695;BME280;6919;52.344;14.518;2022-12-11T03:01:36;100117.63;;;1.29;100.00
13695;BME280;6919;52.344;14.518;2022-12-11T03:04:04;100113.41;;;1.14;100.00
13695;BME280;6919;52.344;14.518;2022-12-11T03:06:40;100115.34;;;1.12;100.00
13695;BME280;6919;52.344;14.518;2022-12-11T03:09:10;100110.22;;;1.34;100.00
13695;BME280;6919;52.344;14.518;2022-12-11T03:11:38;100112.88;;;1.34;100.00
13695;BME280;6919;52.344;14.518;2022-12-11T03:14:08;100108.88;;;1.28;100.00
13695;BME280;6919;52.344;14.518;2022-12-11T03:16:40;100110.78;;;1.14;100.00
13695;BME280;6919;52.344;14.518;2022-12-11T03:19:20;100110.03;;;1.24;100.00
13695;BME280;6919;52.344;14.518;2022-12-11T03:21:55;100105.69;;;1.23;100.00
13695;BME280;6919;52.344;14.518;2022-12-11T03:24:32;100110.66;;;1.28;100.00
13695;BME280;6919;52.344;14.518;2022-12-11T03:27:14;100104.13;;;1.21;100.00
13695;BME280;6919;52.344;14.518;2022-12-11T03:29:53;100101.47;;;1.21;100.00
13695;BME280;6919;52.344;14.518;2022-12-11T03:32:28;100104.19;;;1.32;100.00
13695;BME280;6919;52.344;14.518;2022-12-11T03:35:04;100102.94;;;1.25;100.00
13695;BME280;6919;52.344;14.518;2022-12-11T03:37:39;100106.56;;;1.24;100.00
13695;BME280;6919;52.344;14.518;2022-12-11T03:40:14;100105.28;;;1.29;100.00
13695;BME280;6919;52.344;14.518;2022-12-11T03:42:47;100109.97;;;1.13;100.00
13695;BME280;6919;52.344;14.518;2022-12-11T03:45:19;100104.88;;;1.23;100.00
13695;BME280;6919;52.344;14.518;2022-12-11T03:47:51;100105.59;;;1.25;100.00
13695;BME280;6919;52.344;14.518;2022-12-11T03:50:22;100103.16;;;1.22;100.00
13695;BME280;6919;52.344;14.518;2022-12-11T03:52:54;100102.53;;;1.31;100.00
13695;BME280;6919;52.344;14.518;2022-12-11T03:55:24;100101.06;;;1.27;100.00
13695;BME280;6919;52.344;14.518;2022-12-11T03:57:54;100100.19;;;1.26;100.00
13695;BME280;6919;52.344;14.518;2022-12-11T04:00:24;100102.00;;;1.26;100.00
13695;BME280;6919;52.344;14.518;2022-12-11T04:02:52;100103.16;;;1.22;100.00
13695;BME280;6919;52.344;14.518;2022-12-11T04:05:40;100103.41;;;1.06;100.00
13695;BME280;6919;52.344;14.518;2022-12-11T04:08:09;100104.13;;;1.08;100.00
13695;BME280;6919;52.344;14.518;2022-12-11T04:10:38;100105.00;;;1.09;100.00
13695;BME280;6919;52.344;14.518;2022-12-11T04:13:07;100106.97;;;1.18;100.00
13695;BME280;6919;52.344;14.518;2022-12-11T04:15:38;100114.38;;;1.25;100.00
13695;BME280;6919;52.344;14.518;2022-12-11T04:18:07;100118.28;;;1.20;100.00
13695;BME280;6919;52.344;14.518;2022-12-11T04:21:08;100120.34;;;1.27;100.00
13695;BME280;6919;52.344;14.518;2022-12-11T04:23:53;100120.78;;;1.34;100.00
13695;BME280;6919;52.344;14.518;2022-12-11T04:26:39;100109.50;;;1.19;100.00
13695;BME280;6919;52.344;14.518;2022-12-11T04:29:08;100116.47;;;1.20;100.00
13695;BME280;6919;52.344;14.518;2022-12-11T04:31:38;100113.19;;;1.29;100.00
13695;BME280;6919;52.344;14.518;2022-12-11T04:34:06;100106.13;;;1.30;100.00
13695;BME280;6919;52.344;14.518;2022-12-11T04:36:35;100096.53;;;1.04;100.00
13695;BME280;6919;52.344;14.518;2022-12-11T04:39:04;100097.47;;;1.15;100.00
13695;BME280;6919;52.344;14.518;2022-12-11T04:41:33;100104.31;;;1.18;100.00
13695;BME280;6919;52.344;14.518;2022-12-11T04:44:03;100100.22;;;1.01;100.00
13695;BME280;6919;52.344;14.518;2022-12-11T04:46:32;100100.13;;;1.03;100.00
13695;BME280;6919;52.344;14.518;2022-12-11T04:49:01;100090.41;;;1.03;100.00
13695;BME280;6919;52.344;14.518;2022-12-11T04:51:30;100095.59;;;1.05;100.00
13695;BME280;6919;52.344;14.518;2022-12-11T04:53:58;100090.94;;;0.96;100.00
13695;BME280;6919;52.344;14.518;2022-12-11T04:56:26;100092.28;;;1.14;100.00
13695;BME280;6919;52.344;14.518;2022-12-11T04:58:54;100098.72;;;1.22;100.00
13695;BME280;6919;52.344;14.518;2022-12-11T05:01:23;100101.06;;;1.14;100.00
13695;BME280;6919;52.344;14.518;2022-12-11T05:03:51;100095.78;;;1.14;100.00
13695;BME280;6919;52.344;14.518;2022-12-11T05:06:20;100093.03;;;1.16;100.00
13695;BME280;6919;52.344;14.518;2022-12-11T05:08:49;100096.88;;;0.99;100.00
13695;BME280;6919;52.344;14.518;2022-12-11T05:11:17;100094.13;;;1.13;100.00
13695;BME280;6919;52.344;14.518;2022-12-11T05:13:45;100093.47;;;1.10;100.00
13695;BME280;6919;52.344;14.518;2022-12-11T05:16:15;100089.03;;;1.10;100.00
13695;BME280;6919;52.344;14.518;2022-12-11T05:18:44;100095.16;;;1.11;100.00
13695;BME280;6919;52.344;14.518;2022-12-11T05:21:14;100093.06;;;1.03;100.00
13695;BME280;6919;52.344;14.518;2022-12-11T05:23:44;100096.41;;;1.05;100.00
13695;BME280;6919;52.344;14.518;2022-12-11T05:26:16;100095.69;;;1.03;100.00
13695;BME280;6919;52.344;14.518;2022-12-11T05:28:45;100095.34;;;1.08;100.00
13695;BME280;6919;52.344;14.518;2022-12-11T05:31:20;100088.41;;;0.94;100.00
13695;BME280;6919;52.344;14.518;2022-12-11T05:33:50;100089.88;;;0.98;100.00
13695;BME280;6919;52.344;14.518;2022-12-11T05:36:22;100080.91;;;0.88;100.00
13695;BME280;6919;52.344;14.518;2022-12-11T05:38:53;100084.50;;;1.00;100.00
13695;BME280;6919;52.344;14.518;2022-12-11T05:41:24;100080.19;;;0.99;100.00
13695;BME280;6919;52.344;14.518;2022-12-11T05:43:52;100082.81;;;0.99;100.00
13695;BME280;6919;52.344;14.518;2022-12-11T05:46:24;100082.41;;;1.05;100.00
13695;BME280;6919;52.344;14.518;2022-12-11T05:48:55;100078.06;;;1.04;100.00
13695;BME280;6919;52.344;14.518;2022-12-11T05:51:24;100081.03;;;1.12;100.00
13695;BME280;6919;52.344;14.518;2022-12-11T05:53:55;100069.59;;;1.11;100.00
13695;BME280;6919;52.344;14.518;2022-12-11T05:56:27;100072.34;;;1.10;100.00
13695;BME280;6919;52.344;14.518;2022-12-11T05:58:58;100073.34;;;0.84;100.00
13695;BME280;6919;52.344;14.518;2022-12-11T06:01:42;100066.13;;;0.98;100.00
13695;BME280;6919;52.344;14.518;2022-12-11T06:04:13;100068.78;;;0.86;100.00
13695;BME280;6919;52.344;14.518;2022-12-11T06:06:41;100063.28;;;1.01;100.00
13695;BME280;6919;52.344;14.518;2022-12-11T06:09:15;100063.69;;;1.08;100.00
13695;BME280;6919;52.344;14.518;2022-12-11T06:11:43;100073.41;;;1.07;100.00
13695;BME280;6919;52.344;14.518;2022-12-11T06:14:11;100071.41;;;0.98;100.00
13695;BME280;6919;52.344;14.518;2022-12-11T06:16:40;100065.94;;;0.89;100.00
13695;BME280;6919;52.344;14.518;2022-12-11T06:19:13;100072.28;;;0.74;100.00
13695;BME280;6919;52.344;14.518;2022-12-11T06:21:42;100076.69;;;0.98;100.00
13695;BME280;6919;52.344;14.518;2022-12-11T06:24:13;100074.59;;;0.66;100.00
13695;BME280;6919;52.344;14.518;2022-12-11T06:26:41;100072.69;;;0.68;100.00
13695;BME280;6919;52.344;14.518;2022-12-11T06:29:09;100078.06;;;0.79;100.00
13695;BME280;6919;52.344;14.518;2022-12-11T06:31:39;100072.97;;;1.01;100.00
13695;BME280;6919;52.344;14.518;2022-12-11T06:34:08;100085.25;;;1.02;100.00
13695;BME280;6919;52.344;14.518;2022-12-11T06:36:38;100082.63;;;0.89;100.00
13695;BME280;6919;52.344;14.518;2022-12-11T06:39:07;100086.84;;;0.92;100.00
13695;BME280;6919;52.344;14.518;2022-12-11T06:41:36;100080.38;;;0.96;100.00
13695;BME280;6919;52.344;14.518;2022-12-11T06:44:05;100075.41;;;0.91;100.00
13695;BME280;6919;52.344;14.518;2022-12-11T06:46:33;100074.34;;;0.94;100.00
13695;BME280;6919;52.344;14.518;2022-12-11T06:49:01;100072.69;;;0.93;100.00
13695;BME280;6919;52.344;14.518;2022-12-11T06:51:29;100072.78;;;1.04;100.00
13695;BME280;6919;52.344;14.518;2022-12-11T06:53:58;100067.41;;;0.80;100.00
13695;BME280;6919;52.344;14.518;2022-12-11T06:56:26;100073.84;;;0.89;100.00
13695;BME280;6919;52.344;14.518;2022-12-11T06:58:56;100073.09;;;0.87;100.00
13695;BME280;6919;52.344;14.518;2022-12-11T07:01:31;100080.59;;;0.93;100.00
13695;BME280;6919;52.344;14.518;2022-12-11T07:03:59;100082.28;;;0.81;100.00
13695;BME280;6919;52.344;14.518;2022-12-11T07:06:28;100085.56;;;0.72;100.00
13695;BME280;6919;52.344;14.518;2022-12-11T07:08:57;100086.53;;;0.59;100.00
13695;BME280;6919;52.344;14.518;2022-12-11T07:11:25;100091.81;;;0.84;100.00
13695;BME280;6919;52.344;14.518;2022-12-11T07:13:53;100085.66;;;1.08;100.00
13695;BME280;6919;52.344;14.518;2022-12-11T07:16:23;100083.97;;;1.07;100.00
13695;BME280;6919;52.344;14.518;2022-12-11T07:18:51;100085.47;;;0.99;100.00
13695;BME280;6919;52.344;14.518;2022-12-11T07:21:20;100081.25;;;0.84;100.00
13695;BME280;6919;52.344;14.518;2022-12-11T07:23:49;100081.25;;;0.96;100.00
13695;BME280;6919;52.344;14.518;2022-12-11T07:26:20;100082.16;;;0.95;100.00
13695;BME280;6919;52.344;14.518;2022-12-11T07:28:49;100088.00;;;0.88;100.00
13695;BME280;6919;52.344;14.518;2022-12-11T07:31:20;100085.56;;;0.97;100.00
13695;BME280;6919;52.344;14.518;2022-12-11T07:33:54;100084.38;;;1.01;100.00
13695;BME280;6919;52.344;14.518;2022-12-11T07:36:23;100088.28;;;1.08;100.00
13695;BME280;6919;52.344;14.518;2022-12-11T07:38:52;100094.94;;;0.64;100.00
13695;BME280;6919;52.344;14.518;2022-12-11T07:41:22;100095.25;;;0.97;100.00
13695;BME280;6919;52.344;14.518;2022-12-11T07:43:50;100099.91;;;0.68;100.00
13695;BME280;6919;52.344;14.518;2022-12-11T07:46:21;100096.84;;;0.87;100.00
13695;BME280;6919;52.344;14.518;2022-12-11T07:48:50;100097.47;;;1.03;100.00
13695;BME280;6919;52.344;14.518;2022-12-11T07:51:22;100104.66;;;1.01;100.00
13695;BME280;6919;52.344;14.518;2022-12-11T07:53:56;100106.03;;;0.94;100.00
13695;BME280;6919;52.344;14.518;2022-12-11T07:56:27;100111.19;;;0.95;100.00
13695;BME280;6919;52.344;14.518;2022-12-11T07:58:57;100112.25;;;1.05;100.00
13695;BME280;6919;52.344;14.518;2022-12-11T08:01:28;100109.81;;;1.02;100.00
13695;BME280;6919;52.344;14.518;2022-12-11T08:03:57;100112.69;;;0.99;100.00
13695;BME280;6919;52.344;14.518;2022-12-11T08:06:29;100113.13;;;0.93;100.00
13695;BME280;6919;52.344;14.518;2022-12-11T08:09:00;100107.84;;;1.06;100.00
13695;BME280;6919;52.344;14.518;2022-12-11T08:11:29;100110.88;;;0.87;100.00
13695;BME280;6919;52.344;14.518;2022-12-11T08:13:58;100104.03;;;1.10;100.00
13695;BME280;6919;52.344;14.518;2022-12-11T08:16:27;100109.59;;;1.18;100.00
13695;BME280;6919;52.344;14.518;2022-12-11T08:18:56;100110.16;;;1.23;100.00
13695;BME280;6919;52.344;14.518;2022-12-11T08:21:27;100116.59;;;1.19;100.00
13695;BME280;6919;52.344;14.518;2022-12-11T08:23:56;100110.88;;;1.00;100.00
13695;BME280;6919;52.344;14.518;2022-12-11T08:26:26;100114.59;;;0.97;100.00
13695;BME280;6919;52.344;14.518;2022-12-11T08:28:56;100112.56;;;1.01;100.00
13695;BME280;6919;52.344;14.518;2022-12-11T08:31:25;100109.72;;;1.16;100.00
13695;BME280;6919;52.344;14.518;2022-12-11T08:33:55;100107.06;;;1.16;100.00
13695;BME280;6919;52.344;14.518;2022-12-11T08:36:25;100113.44;;;1.01;100.00
13695;BME280;6919;52.344;14.518;2022-12-11T08:38:54;100107.63;;;1.09;100.00
13695;BME280;6919;52.344;14.518;2022-12-11T08:41:25;100117.03;;;1.00;100.00
13695;BME280;6919;52.344;14.518;2022-12-11T08:43:54;100117.72;;;1.15;100.00
13695;BME280;6919;52.344;14.518;2022-12-11T08:46:25;100119.00;;;1.22;100.00
13695;BME280;6919;52.344;14.518;2022-12-11T08:48:55;100116.47;;;1.08;100.00
13695;BME280;6919;52.344;14.518;2022-12-11T08:51:29;100114.69;;;1.08;100.00
13695;BME280;6919;52.344;14.518;2022-12-11T08:53:59;100115.75;;;1.06;100.00
13695;BME280;6919;52.344;14.518;2022-12-11T08:56:29;100112.16;;;1.19;100.00
13695;BME280;6919;52.344;14.518;2022-12-11T08:58:59;100110.34;;;1.32;100.00
13695;BME280;6919;52.344;14.518;2022-12-11T09:01:28;100122.25;;;1.38;100.00
13695;BME280;6919;52.344;14.518;2022-12-11T09:03:57;100116.03;;;1.39;100.00
13695;BME280;6919;52.344;14.518;2022-12-11T09:06:29;100114.16;;;1.28;100.00
13695;BME280;6919;52.344;14.518;2022-12-11T09:08:59;100115.50;;;1.46;100.00
13695;BME280;6919;52.344;14.518;2022-12-11T09:11:32;100119.72;;;1.36;100.00
13695;BME280;6919;52.344;14.518;2022-12-11T09:14:01;100107.88;;;1.42;100.00
13695;BME280;6919;52.344;14.518;2022-12-11T09:16:36;100109.25;;;1.47;100.00
13695;BME280;6919;52.344;14.518;2022-12-11T09:19:10;100101.66;;;1.43;100.00
13695;BME280;6919;52.344;14.518;2022-12-11T09:21:42;100111.69;;;1.38;100.00
13695;BME280;6919;52.344;14.518;2022-12-11T09:24:12;100112.19;;;1.55;100.00
13695;BME280;6919;52.344;14.518;2022-12-11T09:26:41;100105.28;;;1.65;100.00
13695;BME280;6919;52.344;14.518;2022-12-11T09:29:10;100105.38;;;1.64;100.00
13695;BME280;6919;52.344;14.518;2022-12-11T09:31:39;100102.84;;;1.62;100.00
13695;BME280;6919;52.344;14.518;2022-12-11T09:34:10;100109.97;;;1.62;100.00
13695;BME280;6919;52.344;14.518;2022-12-11T09:36:41;100098.31;;;1.64;100.00
13695;BME280;6919;52.344;14.518;2022-12-11T09:39:12;100098.00;;;1.69;100.00
13695;BME280;6919;52.344;14.518;2022-12-11T09:41:50;100096.38;;;1.79;100.00
13695;BME280;6919;52.344;14.518;2022-12-11T09:44:34;100097.00;;;1.82;100.00
13695;BME280;6919;52.344;14.518;2022-12-11T09:47:34;100085.81;;;1.79;100.00
13695;BME280;6919;52.344;14.518;2022-12-11T09:50:14;100085.88;;;1.90;100.00
13695;BME280;6919;52.344;14.518;2022-12-11T09:53:05;100086.19;;;1.62;100.00
13695;BME280;6919;52.344;14.518;2022-12-11T09:55:48;100075.22;;;1.43;100.00
13695;BME280;6919;52.344;14.518;2022-12-11T09:58:26;100075.00;;;1.46;100.00
13695;BME280;6919;52.344;14.518;2022-12-11T10:01:10;100078.16;;;1.63;100.00
13695;BME280;6919;52.344;14.518;2022-12-11T10:04:11;100077.28;;;1.63;100.00
13695;BME280;6919;52.344;14.518;2022-12-11T10:07:03;100077.34;;;1.74;100.00
13695;BME280;6919;52.344;14.518;2022-12-11T10:09:44;100078.47;;;1.59;100.00
13695;BME280;6919;52.344;14.518;2022-12-11T10:12:32;100068.84;;;1.22;100.00
13695;BME280;6919;52.344;14.518;2022-12-11T10:15:23;100070.47;;;0.87;100.00
13695;BME280;6919;52.344;14.518;2022-12-11T10:17:59;100061.38;;;1.03;100.00
13695;BME280;6919;52.344;14.518;2022-12-11T10:20:34;100056.41;;;1.11;100.00
13695;BME280;6919;52.344;14.518;2022-12-11T10:23:08;100057.47;;;1.09;100.00
13695;BME280;6919;52.344;14.518;2022-12-11T10:25:49;100051.88;;;1.01;100.00
13695;BME280;6919;52.344;14.518;2022-12-11T10:28:19;100053.56;;;1.14;100.00
13695;BME280;6919;52.344;14.518;2022-12-11T10:30:56;100047.03;;;1.07;100.00
13695;BME280;6919;52.344;14.518;2022-12-11T10:33:40;100046.31;;;1.29;100.00
13695;BME280;6919;52.344;14.518;2022-12-11T10:36:18;100045.25;;;1.44;100.00
13695;BME280;6919;52.344;14.518;2022-12-11T10:38:47;100031.78;;;1.59;100.00
13695;BME280;6919;52.344;14.518;2022-12-11T10:41:19;100041.91;;;1.53;100.00
13695;BME280;6919;52.344;14.518;2022-12-11T10:43:52;100042.88;;;1.52;100.00
13695;BME280;6919;52.344;14.518;2022-12-11T10:46:23;100048.09;;;1.41;100.00
13695;BME280;6919;52.344;14.518;2022-12-11T10:48:55;100039.31;;;1.40;100.00
13695;BME280;6919;52.344;14.518;2022-12-11T10:51:33;100032.44;;;1.50;100.00
13695;BME280;6919;52.344;14.518;2022-12-11T10:54:14;100035.31;;;1.35;100.00
13695;BME280;6919;52.344;14.518;2022-12-11T10:56:48;100036.75;;;1.51;100.00
13695;BME280;6919;52.344;14.518;2022-12-11T10:59:22;100028.06;;;1.62;100.00
13695;BME280;6919;52.344;14.518;2022-12-11T11:01:51;100025.63;;;1.35;100.00
13695;BME280;6919;52.344;14.518;2022-12-11T11:04:28;100017.72;;;1.59;100.00
13695;BME280;6919;52.344;14.518;2022-12-11T11:07:03;100019.22;;;1.50;100.00
13695;BME280;6919;52.344;14.518;2022-12-11T11:09:39;100006.91;;;1.62;100.00
13695;BME280;6919;52.344;14.518;2022-12-11T11:12:21;100006.34;;;1.69;100.00
13695;BME280;6919;52.344;14.518;2022-12-11T11:15:02;100005.47;;;1.58;100.00
13695;BME280;6919;52.344;14.518;2022-12-11T11:17:32;100004.03;;;1.41;100.00
13695;BME280;6919;52.344;14.518;2022-12-11T11:20:23;100005.22;;;1.61;100.00
13695;BME280;6919;52.344;14.518;2022-12-11T11:22:56;99998.53;;;1.44;100.00
13695;BME280;6919;52.344;14.518;2022-12-11T11:25:26;99997.81;;;1.66;100.00
13695;BME280;6919;52.344;14.518;2022-12-11T11:28:00;99994.09;;;1.68;100.00
13695;BME280;6919;52.344;14.518;2022-12-11T11:30:33;99995.06;;;2.02;100.00
13695;BME280;6919;52.344;14.518;2022-12-11T11:33:05;100003.19;;;1.88;100.00
13695;BME280;6919;52.344;14.518;2022-12-11T11:35:52;100001.91;;;1.70;100.00
13695;BME280;6919;52.344;14.518;2022-12-11T11:38:24;99998.16;;;1.96;100.00
13695;BME280;6919;52.344;14.518;2022-12-11T11:41:02;99995.69;;;1.82;100.00
13695;BME280;6919;52.344;14.518;2022-12-11T11:43:45;99990.00;;;1.99;100.00
13695;BME280;6919;52.344;14.518;2022-12-11T11:46:21;99996.81;;;1.90;100.00
13695;BME280;6919;52.344;14.518;2022-12-11T11:48:59;99998.66;;;1.90;100.00
13695;BME280;6919;52.344;14.518;2022-12-11T11:51:37;99999.75;;;1.98;100.00
13695;BME280;6919;52.344;14.518;2022-12-11T11:54:23;99990.97;;;1.98;100.00
13695;BME280;6919;52.344;14.518;2022-12-11T11:56:55;99991.94;;;1.97;100.00
13695;BME280;6919;52.344;14.518;2022-12-11T11:59:30;99994.03;;;1.81;100.00
13695;BME280;6919;52.344;14.518;2022-12-11T12:02:00;99988.44;;;1.62;100.00
13695;BME280;6919;52.344;14.518;2022-12-11T12:04:33;99993.38;;;1.66;100.00
13695;BME280;6919;52.344;14.518;2022-12-11T12:07:16;99990.53;;;1.80;100.00
13695;BME280;6919;52.344;14.518;2022-12-11T12:09:59;99973.81;;;2.03;100.00
13695;BME280;6919;52.344;14.518;2022-12-11T12:12:40;99982.84;;;1.77;100.00
13695;BME280;6919;52.344;14.518;2022-12-11T12:15:33;99982.19;;;1.97;100.00
13695;BME280;6919;52.344;14.518;2022-12-11T12:18:14;99976.34;;;2.05;100.00
13695;BME280;6919;52.344;14.518;2022-12-11T12:20:59;99973.16;;;1.89;100.00
13695;BME280;6919;52.344;14.518;2022-12-11T12:23:53;99986.63;;;1.86;100.00
13695;BME280;6919;52.344;14.518;2022-12-11T12:26:28;99983.50;;;1.92;100.00
13695;BME280;6919;52.344;14.518;2022-12-11T12:29:11;99987.47;;;1.63;100.00
13695;BME280;6919;52.344;14.518;2022-12-11T12:32:02;99997.19;;;1.86;100.00
13695;BME280;6919;52.344;14.518;2022-12-11T12:34:57;99993.25;;;1.68;100.00
13695;BME280;6919;52.344;14.518;2022-12-11T12:37:45;99988.91;;;1.67;100.00
13695;BME280;6919;52.344;14.518;2022-12-11T12:40:25;99962.28;;;1.70;100.00
13695;BME280;6919;52.344;14.518;2022-12-11T12:43:07;99961.41;;;1.69;100.00
13695;BME280;6919;52.344;14.518;2022-12-11T12:45:48;99963.34;;;1.67;100.00
13695;BME280;6919;52.344;14.518;2022-12-11T12:48:23;99950.13;;;2.02;100.00
13695;BME280;6919;52.344;14.518;2022-12-11T12:50:53;99948.69;;;2.09;100.00
13695;BME280;6919;52.344;14.518;2022-12-11T12:53:26;99954.00;;;1.74;100.00
13695;BME280;6919;52.344;14.518;2022-12-11T12:55:56;99960.22;;;1.97;100.00
13695;BME280;6919;52.344;14.518;2022-12-11T12:58:28;99950.25;;;2.11;100.00
13695;BME280;6919;52.344;14.518;2022-12-11T13:01:07;99951.22;;;1.99;100.00
13695;BME280;6919;52.344;14.518;2022-12-11T13:03:52;99955.63;;;1.99;100.00
13695;BME280;6919;52.344;14.518;2022-12-11T13:06:30;99949.19;;;1.45;100.00
13695;BME280;6919;52.344;14.518;2022-12-11T13:09:14;99956.41;;;1.66;100.00
13695;BME280;6919;52.344;14.518;2022-12-11T13:11:44;99952.97;;;1.53;100.00
13695;BME280;6919;52.344;14.518;2022-12-11T13:14:28;99952.94;;;1.77;100.00
13695;BME280;6919;52.344;14.518;2022-12-11T13:17:23;99954.00;;;1.74;100.00
13695;BME280;6919;52.344;14.518;2022-12-11T13:20:15;99947.53;;;1.78;100.00
13695;BME280;6919;52.344;14.518;2022-12-11T13:22:53;99945.84;;;1.77;100.00